Hardin, Texas
Current Conditions -  °F | °C
As of 1:55 PM on Wednesday 17 Dec 2014 (Local Time) from K6R3 Reporting Station
Broken Clouds Broken Clouds  
Wind Chill: 60°   Ceiling: 10000
Heat Index: 60°   Visibility: 7mi
Dew Point: 47°   Wind: 3mph
Humidity: 61%   Direction: 120°ESE
Pressure: 30.15"   Gusts: NA
Location:  30.15°N, 94.74°W
Report Text: K6R3 171955Z AUTO 12003KT 7SM SCT070 BKN100 16/08 A3015 RMK AO2 T01570083
Loading
Personal Weather Stations






























Interactive Weather Map New forecast layout! Learn more

10-Day Weather Forecast

Advertisements
Track Severe Weather on mobile